Bunker Hill, Indiana
Current Conditions -  °F | °C
As of 10:58 PM on Saturday 20 Dec 2014 (Local Time) from KGUS Reporting Station
Overcast Overcast  
Wind Chill: 29°   Ceiling: 6000
Heat Index: 29°   Visibility: 8mi
Dew Point: 29°   Wind: 2mph
Humidity: 100%   Direction: 240°WSW
Pressure: 30.28"   Gusts: NA
Location:  40.66°N, 86.1°W
Report Text: KGUS 210358Z AUTO 24002KT 8SM R23/5500FT OVC060 M01/M01 A3028 RMK AO2 SLP266 T10141014 TSNO
Loading
Personal Weather Stations






























Interactive Weather Map New forecast layout! Learn more

10-Day Weather Forecast

Advertisements
Track Severe Weather on mobile